Alps Wideshine — 9HA2472 — position and weather

sailwx.info

Track history (hours):
 
Tides and Currents Weather Stations Pressure Air Temp Water Temp Dewpoint Dewpoint Depression Visibility Wind Speed Wind Dir Waves Ship Positions

Alps Wideshine

Last reported at 2016-Aug-21 04:27 UTC. Time now 2016-Aug-28 18:53 UTC.
Position N 36°51' W 075°51'.

Length 107 m; draft 5.5 m.

Type: Tanker. MMSI: 248694000.

Date/timePositionNaut miles runAvg speedWind from/ knotsBaromVisibWave heightAir tempDewpointWater temp
2016-Aug-21 04:27N 36°51' W 075°51'1011.0
2016-Aug-21 03:33N 36°57' W 076°02'1210.1
2016-Aug-21 02:21N 37°00' W 076°16'6 7.7
2016-Aug-21 01:31N 36°56' W 076°23'15 2.5
2016-Aug-20 19:33N 36°58' W 076°04'6911.5
2016-Aug-20 13:33N 38°06' W 076°15'2912.6
2016-Aug-20 11:13N 38°34' W 076°26'912.4
2016-Aug-20 10:31N 38°43' W 076°26'1312.3
2016-Aug-20 09:30N 38°55' W 076°24'1112.2
2016-Aug-20 08:33N 39°07' W 076°24'10 9.9
2016-Aug-20 07:33N 39°13' W 076°34'1 1.1
2016-Aug-20 06:29N 39°13' W 076°35'0 0.0
2016-Aug-20 05:33N 39°13' W 076°35'0 0.0
2016-Aug-20 04:33N 39°13' W 076°35'0 0.0
2016-Aug-20 03:33N 39°13' W 076°35'0 0.0
2016-Aug-20 02:31N 39°13' W 076°35'0 0.0
2016-Aug-20 01:33N 39°13' W 076°35'0 0.0
2016-Aug-19 23:30N 39°13' W 076°35'0 0.0
2016-Aug-19 22:32N 39°13' W 076°35'0 0.0
2016-Aug-19 21:20N 39°13' W 076°35'0 0.0
2016-Aug-19 19:31N 39°13' W 076°35'0 0.0
2016-Aug-19 17:29N 39°13' W 076°35'0 0.0
2016-Aug-19 14:13N 39°13' W 076°35'0 0.0
2016-Aug-19 13:30N 39°13' W 076°35'0 0.0
2016-Aug-19 12:23N 39°13' W 076°35'1 0.8
2016-Aug-19 11:31N 39°13' W 076°34'8 8.4
2016-Aug-19 10:33N 39°09' W 076°25'1212.2
2016-Aug-19 09:33N 38°57' W 076°23'1312.1
2016-Aug-19 08:30N 38°45' W 076°26'4511.2
2016-Aug-19 04:27N 38°01' W 076°12'6012.3
2016-Aug-18 23:33N 37°01' W 076°02'1110.9
2016-Aug-18 22:33N 36°53' W 075°53'  
Track history (hours):
 
Tides and Currents Weather Stations Pressure Air Temp Water Temp Dewpoint Dewpoint Depression Visibility Wind Speed Wind Dir Waves Ship Positions

Alps Wideshine

Last reported at 2016-Aug-21 04:27 UTC. Time now 2016-Aug-28 18:53 UTC.
Position N 36°51' W 075°51'.

Length 107 m; draft 5.5 m.

Type: Tanker. MMSI: 248694000.

Date/timePositionNaut miles runAvg speedWind from/ knotsBaromVisibWave heightAir tempDewpointWater temp
2016-Aug-21 04:27N 36°51' W 075°51'1011.0
2016-Aug-21 03:33N 36°57' W 076°02'1210.1
2016-Aug-21 02:21N 37°00' W 076°16'6 7.7
2016-Aug-21 01:31N 36°56' W 076°23'15 2.5
2016-Aug-20 19:33N 36°58' W 076°04'6911.5
2016-Aug-20 13:33N 38°06' W 076°15'2912.6
2016-Aug-20 11:13N 38°34' W 076°26'912.4
2016-Aug-20 10:31N 38°43' W 076°26'1312.3
2016-Aug-20 09:30N 38°55' W 076°24'1112.2
2016-Aug-20 08:33N 39°07' W 076°24'10 9.9
2016-Aug-20 07:33N 39°13' W 076°34'1 1.1
2016-Aug-20 06:29N 39°13' W 076°35'0 0.0
2016-Aug-20 05:33N 39°13' W 076°35'0 0.0
2016-Aug-20 04:33N 39°13' W 076°35'0 0.0
2016-Aug-20 03:33N 39°13' W 076°35'0 0.0
2016-Aug-20 02:31N 39°13' W 076°35'0 0.0
2016-Aug-20 01:33N 39°13' W 076°35'0 0.0
2016-Aug-19 23:30N 39°13' W 076°35'0 0.0
2016-Aug-19 22:32N 39°13' W 076°35'0 0.0
2016-Aug-19 21:20N 39°13' W 076°35'0 0.0
2016-Aug-19 19:31N 39°13' W 076°35'0 0.0
2016-Aug-19 17:29N 39°13' W 076°35'0 0.0
2016-Aug-19 14:13N 39°13' W 076°35'0 0.0
2016-Aug-19 13:30N 39°13' W 076°35'0 0.0
2016-Aug-19 12:23N 39°13' W 076°35'1 0.8
2016-Aug-19 11:31N 39°13' W 076°34'8 8.4
2016-Aug-19 10:33N 39°09' W 076°25'1212.2
2016-Aug-19 09:33N 38°57' W 076°23'1312.1
2016-Aug-19 08:30N 38°45' W 076°26'4511.2
2016-Aug-19 04:27N 38°01' W 076°12'6012.3
2016-Aug-18 23:33N 37°01' W 076°02'1110.9
2016-Aug-18 22:33N 36°53' W 075°53'  

Dump ship's entire track history